sensor_id;sensor_type;location;lat;lon;timestamp;temperature;humidity
6407;DHT22;3236;51.022;6.818;2023-07-31T00:00:15;16.40;99.90
6407;DHT22;3236;51.022;6.818;2023-07-31T00:02:42;16.50;99.90
6407;DHT22;3236;51.022;6.818;2023-07-31T00:05:09;16.70;99.90
6407;DHT22;3236;51.022;6.818;2023-07-31T00:10:06;17.20;99.90
6407;DHT22;3236;51.022;6.818;2023-07-31T00:12:33;16.70;99.90
6407;DHT22;3236;51.022;6.818;2023-07-31T00:15:01;17.30;99.90
6407;DHT22;3236;51.022;6.818;2023-07-31T00:17:28;17.10;99.90
6407;DHT22;3236;51.022;6.818;2023-07-31T00:19:55;16.90;99.90
6407;DHT22;3236;51.022;6.818;2023-07-31T00:24:51;16.40;99.90
6407;DHT22;3236;51.022;6.818;2023-07-31T00:27:21;17.00;99.90
6407;DHT22;3236;51.022;6.818;2023-07-31T00:29:48;16.50;99.90
6407;DHT22;3236;51.022;6.818;2023-07-31T00:32:15;17.30;99.90
6407;DHT22;3236;51.022;6.818;2023-07-31T00:34:42;16.90;99.90
6407;DHT22;3236;51.022;6.818;2023-07-31T00:37:09;16.80;99.90
6407;DHT22;3236;51.022;6.818;2023-07-31T00:39:36;17.00;99.90
6407;DHT22;3236;51.022;6.818;2023-07-31T00:42:05;17.30;99.90
6407;DHT22;3236;51.022;6.818;2023-07-31T00:44:33;17.30;99.90
6407;DHT22;3236;51.022;6.818;2023-07-31T00:47:00;17.00;99.90
6407;DHT22;3236;51.022;6.818;2023-07-31T00:49:27;17.00;99.90
6407;DHT22;3236;51.022;6.818;2023-07-31T00:51:55;17.40;99.90
6407;DHT22;3236;51.022;6.818;2023-07-31T00:56:50;17.10;99.90
6407;DHT22;3236;51.022;6.818;2023-07-31T00:59:21;17.10;99.90
6407;DHT22;3236;51.022;6.818;2023-07-31T01:01:48;17.50;99.90
6407;DHT22;3236;51.022;6.818;2023-07-31T01:04:16;17.10;99.90
6407;DHT22;3236;51.022;6.818;2023-07-31T01:06:51;16.60;99.90
6407;DHT22;3236;51.022;6.818;2023-07-31T01:09:23;17.40;99.90
6407;DHT22;3236;51.022;6.818;2023-07-31T01:11:56;17.00;99.90
6407;DHT22;3236;51.022;6.818;2023-07-31T01:14:24;16.70;99.90
6407;DHT22;3236;51.022;6.818;2023-07-31T01:16:51;17.10;99.90
6407;DHT22;3236;51.022;6.818;2023-07-31T01:19:22;17.10;99.90
6407;DHT22;3236;51.022;6.818;2023-07-31T01:22:30;17.50;99.90
6407;DHT22;3236;51.022;6.818;2023-07-31T01:25:10;17.50;99.90
6407;DHT22;3236;51.022;6.818;2023-07-31T01:27:50;16.70;99.90
6407;DHT22;3236;51.022;6.818;2023-07-31T01:30:22;17.00;99.90
6407;DHT22;3236;51.022;6.818;2023-07-31T01:35:20;17.50;99.90
6407;DHT22;3236;51.022;6.818;2023-07-31T01:37:47;17.10;99.90
6407;DHT22;3236;51.022;6.818;2023-07-31T01:40:14;17.40;99.90
6407;DHT22;3236;51.022;6.818;2023-07-31T01:42:43;17.20;99.90
6407;DHT22;3236;51.022;6.818;2023-07-31T01:45:11;17.30;99.90
6407;DHT22;3236;51.022;6.818;2023-07-31T01:47:38;16.80;99.90
6407;DHT22;3236;51.022;6.818;2023-07-31T01:50:06;16.70;99.90
6407;DHT22;3236;51.022;6.818;2023-07-31T01:52:33;17.50;99.90
6407;DHT22;3236;51.022;6.818;2023-07-31T01:55:00;17.60;99.90
6407;DHT22;3236;51.022;6.818;2023-07-31T01:57:27;16.80;99.90
6407;DHT22;3236;51.022;6.818;2023-07-31T01:59:56;17.50;99.90
6407;DHT22;3236;51.022;6.818;2023-07-31T02:02:23;17.30;99.90
6407;DHT22;3236;51.022;6.818;2023-07-31T02:07:17;17.80;99.90
6407;DHT22;3236;51.022;6.818;2023-07-31T02:09:44;16.90;99.90
6407;DHT22;3236;51.022;6.818;2023-07-31T02:12:12;17.50;99.90
6407;DHT22;3236;51.022;6.818;2023-07-31T02:14:40;17.20;99.90
6407;DHT22;3236;51.022;6.818;2023-07-31T02:17:08;17.20;99.90
6407;DHT22;3236;51.022;6.818;2023-07-31T02:19:35;17.00;99.90
6407;DHT22;3236;51.022;6.818;2023-07-31T02:22:03;17.00;99.90
6407;DHT22;3236;51.022;6.818;2023-07-31T02:24:30;17.30;99.90
6407;DHT22;3236;51.022;6.818;2023-07-31T02:26:57;17.70;99.90
6407;DHT22;3236;51.022;6.818;2023-07-31T02:29:24;17.20;99.90
6407;DHT22;3236;51.022;6.818;2023-07-31T02:34:20;17.20;99.90
6407;DHT22;3236;51.022;6.818;2023-07-31T02:41:47;17.10;99.90
6407;DHT22;3236;51.022;6.818;2023-07-31T02:51:38;17.50;99.90
6407;DHT22;3236;51.022;6.818;2023-07-31T02:56:32;17.50;99.90
6407;DHT22;3236;51.022;6.818;2023-07-31T03:03:54;17.40;99.90
6407;DHT22;3236;51.022;6.818;2023-07-31T03:08:49;17.60;99.90
6407;DHT22;3236;51.022;6.818;2023-07-31T03:11:16;17.40;99.90
6407;DHT22;3236;51.022;6.818;2023-07-31T03:26:03;17.50;99.90
6407;DHT22;3236;51.022;6.818;2023-07-31T03:30:57;17.40;99.90
6407;DHT22;3236;51.022;6.818;2023-07-31T03:33:24;17.40;99.90
6407;DHT22;3236;51.022;6.818;2023-07-31T03:35:52;17.00;99.90
6407;DHT22;3236;51.022;6.818;2023-07-31T03:43:15;17.50;99.90
6407;DHT22;3236;51.022;6.818;2023-07-31T03:45:42;17.70;99.90
6407;DHT22;3236;51.022;6.818;2023-07-31T03:50:37;17.00;99.90
6407;DHT22;3236;51.022;6.818;2023-07-31T03:55:31;17.20;99.90
6407;DHT22;3236;51.022;6.818;2023-07-31T03:57:58;17.80;99.90
6407;DHT22;3236;51.022;6.818;2023-07-31T04:02:55;17.70;99.90
6407;DHT22;3236;51.022;6.818;2023-07-31T04:05:23;17.80;99.90
6407;DHT22;3236;51.022;6.818;2023-07-31T04:10:17;17.30;99.90
6407;DHT22;3236;51.022;6.818;2023-07-31T04:15:11;17.10;99.90
6407;DHT22;3236;51.022;6.818;2023-07-31T04:17:40;17.40;99.90
6407;DHT22;3236;51.022;6.818;2023-07-31T04:34:53;17.40;99.90
6407;DHT22;3236;51.022;6.818;2023-07-31T04:39:47;17.20;99.90
6407;DHT22;3236;51.022;6.818;2023-07-31T04:42:14;17.40;99.90
6407;DHT22;3236;51.022;6.818;2023-07-31T04:44:41;17.30;99.90
6407;DHT22;3236;51.022;6.818;2023-07-31T04:52:05;17.90;99.90
6407;DHT22;3236;51.022;6.818;2023-07-31T04:57:00;17.30;99.90
6407;DHT22;3236;51.022;6.818;2023-07-31T04:59:27;17.60;99.90
6407;DHT22;3236;51.022;6.818;2023-07-31T05:01:54;17.10;99.90
6407;DHT22;3236;51.022;6.818;2023-07-31T05:09:20;17.80;99.90
6407;DHT22;3236;51.022;6.818;2023-07-31T05:11:47;17.40;99.90
6407;DHT22;3236;51.022;6.818;2023-07-31T05:16:42;17.70;99.90
6407;DHT22;3236;51.022;6.818;2023-07-31T05:19:09;17.80;99.90
6407;DHT22;3236;51.022;6.818;2023-07-31T05:24:03;18.20;99.90
6407;DHT22;3236;51.022;6.818;2023-07-31T05:26:32;17.60;99.90
6407;DHT22;3236;51.022;6.818;2023-07-31T05:28:59;18.00;99.90
6407;DHT22;3236;51.022;6.818;2023-07-31T05:33:53;18.40;99.90
6407;DHT22;3236;51.022;6.818;2023-07-31T05:36:20;18.50;99.90
6407;DHT22;3236;51.022;6.818;2023-07-31T05:38:47;18.50;99.90
6407;DHT22;3236;51.022;6.818;2023-07-31T05:41:15;18.40;99.90
6407;DHT22;3236;51.022;6.818;2023-07-31T05:43:43;18.10;99.90
6407;DHT22;3236;51.022;6.818;2023-07-31T05:46:11;18.10;99.90
6407;DHT22;3236;51.022;6.818;2023-07-31T05:48:38;17.80;99.90
6407;DHT22;3236;51.022;6.818;2023-07-31T05:51:05;18.40;99.90
6407;DHT22;3236;51.022;6.818;2023-07-31T05:53:32;18.20;99.90
6407;DHT22;3236;51.022;6.818;2023-07-31T05:56:00;17.70;99.90
6407;DHT22;3236;51.022;6.818;2023-07-31T06:00:56;18.10;99.90
6407;DHT22;3236;51.022;6.818;2023-07-31T06:03:23;17.40;99.90
6407;DHT22;3236;51.022;6.818;2023-07-31T06:05:50;17.60;99.90
6407;DHT22;3236;51.022;6.818;2023-07-31T06:08:17;17.40;99.90
6407;DHT22;3236;51.022;6.818;2023-07-31T06:15:38;16.90;99.90
6407;DHT22;3236;51.022;6.818;2023-07-31T06:18:07;17.20;99.90
6407;DHT22;3236;51.022;6.818;2023-07-31T06:20:34;17.60;99.90
6407;DHT22;3236;51.022;6.818;2023-07-31T06:23:02;17.20;99.90
6407;DHT22;3236;51.022;6.818;2023-07-31T06:30:24;17.70;99.90
6407;DHT22;3236;51.022;6.818;2023-07-31T06:32:51;17.90;99.90
6407;DHT22;3236;51.022;6.818;2023-07-31T06:35:19;17.90;99.90
6407;DHT22;3236;51.022;6.818;2023-07-31T06:37:46;17.60;99.90
6407;DHT22;3236;51.022;6.818;2023-07-31T06:40:13;17.60;99.90
6407;DHT22;3236;51.022;6.818;2023-07-31T06:45:09;17.50;99.90
6407;DHT22;3236;51.022;6.818;2023-07-31T06:47:36;17.70;99.90
6407;DHT22;3236;51.022;6.818;2023-07-31T06:50:03;17.90;99.90
6407;DHT22;3236;51.022;6.818;2023-07-31T06:52:32;17.90;99.90
6407;DHT22;3236;51.022;6.818;2023-07-31T06:55:03;18.00;99.90
6407;DHT22;3236;51.022;6.818;2023-07-31T06:57:31;17.70;99.90
6407;DHT22;3236;51.022;6.818;2023-07-31T06:59:58;18.30;99.90
6407;DHT22;3236;51.022;6.818;2023-07-31T07:02:25;18.20;99.90
6407;DHT22;3236;51.022;6.818;2023-07-31T07:07:20;17.90;99.90
6407;DHT22;3236;51.022;6.818;2023-07-31T07:09:48;18.50;99.90
6407;DHT22;3236;51.022;6.818;2023-07-31T07:12:15;18.70;99.90
6407;DHT22;3236;51.022;6.818;2023-07-31T07:14:42;18.50;99.90
6407;DHT22;3236;51.022;6.818;2023-07-31T07:17:11;17.80;99.90
6407;DHT22;3236;51.022;6.818;2023-07-31T07:19:40;18.20;99.90
6407;DHT22;3236;51.022;6.818;2023-07-31T07:22:08;17.90;99.90
6407;DHT22;3236;51.022;6.818;2023-07-31T07:24:35;18.00;99.90
6407;DHT22;3236;51.022;6.818;2023-07-31T07:27:04;18.00;99.90
6407;DHT22;3236;51.022;6.818;2023-07-31T07:31:58;17.90;99.90
6407;DHT22;3236;51.022;6.818;2023-07-31T07:36:53;17.90;99.90
6407;DHT22;3236;51.022;6.818;2023-07-31T07:39:23;17.20;99.90
6407;DHT22;3236;51.022;6.818;2023-07-31T07:41:50;17.10;99.90
6407;DHT22;3236;51.022;6.818;2023-07-31T07:44:20;17.80;99.90
6407;DHT22;3236;51.022;6.818;2023-07-31T07:46:47;17.80;99.90
6407;DHT22;3236;51.022;6.818;2023-07-31T07:49:14;17.80;99.90
6407;DHT22;3236;51.022;6.818;2023-07-31T07:51:41;17.30;99.90
6407;DHT22;3236;51.022;6.818;2023-07-31T07:54:09;16.90;99.90
6407;DHT22;3236;51.022;6.818;2023-07-31T07:56:36;17.00;99.90
6407;DHT22;3236;51.022;6.818;2023-07-31T08:01:32;17.20;99.90
6407;DHT22;3236;51.022;6.818;2023-07-31T08:04:01;17.60;99.90
6407;DHT22;3236;51.022;6.818;2023-07-31T08:06:28;17.00;99.90
6407;DHT22;3236;51.022;6.818;2023-07-31T08:11:23;16.80;99.90
6407;DHT22;3236;51.022;6.818;2023-07-31T08:13:50;17.10;99.90
6407;DHT22;3236;51.022;6.818;2023-07-31T08:16:24;17.00;99.90
6407;DHT22;3236;51.022;6.818;2023-07-31T08:18:53;17.30;99.90
6407;DHT22;3236;51.022;6.818;2023-07-31T08:21:21;17.20;99.90
6407;DHT22;3236;51.022;6.818;2023-07-31T08:26:16;17.40;99.90
6407;DHT22;3236;51.022;6.818;2023-07-31T08:28:43;17.50;99.90
6407;DHT22;3236;51.022;6.818;2023-07-31T08:31:10;17.10;99.90
6407;DHT22;3236;51.022;6.818;2023-07-31T08:33:38;17.30;99.90
6407;DHT22;3236;51.022;6.818;2023-07-31T08:36:07;17.80;99.90
6407;DHT22;3236;51.022;6.818;2023-07-31T08:41:03;17.70;99.90
6407;DHT22;3236;51.022;6.818;2023-07-31T08:43:30;17.60;99.90
6407;DHT22;3236;51.022;6.818;2023-07-31T08:45:58;17.40;99.90
6407;DHT22;3236;51.022;6.818;2023-07-31T08:48:25;17.90;99.90
6407;DHT22;3236;51.022;6.818;2023-07-31T08:50:53;17.70;99.90
6407;DHT22;3236;51.022;6.818;2023-07-31T08:53:21;18.00;99.90
6407;DHT22;3236;51.022;6.818;2023-07-31T08:58:17;18.00;99.90
6407;DHT22;3236;51.022;6.818;2023-07-31T09:00:46;17.60;99.90
6407;DHT22;3236;51.022;6.818;2023-07-31T09:03:18;17.90;99.90
6407;DHT22;3236;51.022;6.818;2023-07-31T09:05:48;18.20;99.90
6407;DHT22;3236;51.022;6.818;2023-07-31T09:08:22;17.60;99.90
6407;DHT22;3236;51.022;6.818;2023-07-31T09:13:17;17.90;99.90
6407;DHT22;3236;51.022;6.818;2023-07-31T09:15:46;17.70;99.90
6407;DHT22;3236;51.022;6.818;2023-07-31T09:20:44;18.00;99.90
6407;DHT22;3236;51.022;6.818;2023-07-31T09:23:12;17.40;99.90
6407;DHT22;3236;51.022;6.818;2023-07-31T09:25:47;18.30;99.90
6407;DHT22;3236;51.022;6.818;2023-07-31T09:28:16;17.70;99.90
6407;DHT22;3236;51.022;6.818;2023-07-31T09:33:15;18.50;99.90
6407;DHT22;3236;51.022;6.818;2023-07-31T09:35:42;18.70;99.90
6407;DHT22;3236;51.022;6.818;2023-07-31T09:38:10;18.80;99.90
6407;DHT22;3236;51.022;6.818;2023-07-31T09:40:39;18.40;99.90
6407;DHT22;3236;51.022;6.818;2023-07-31T09:43:09;19.00;99.90
6407;DHT22;3236;51.022;6.818;2023-07-31T09:45:39;19.10;99.90
6407;DHT22;3236;51.022;6.818;2023-07-31T09:48:07;19.40;99.90
6407;DHT22;3236;51.022;6.818;2023-07-31T09:50:37;19.20;99.90
6407;DHT22;3236;51.022;6.818;2023-07-31T09:53:05;19.30;99.90
6407;DHT22;3236;51.022;6.818;2023-07-31T09:58:03;19.40;99.90
6407;DHT22;3236;51.022;6.818;2023-07-31T10:00:32;19.40;99.90
6407;DHT22;3236;51.022;6.818;2023-07-31T10:03:00;19.20;99.90
6407;DHT22;3236;51.022;6.818;2023-07-31T10:05:31;19.10;99.90
6407;DHT22;3236;51.022;6.818;2023-07-31T10:07:59;19.10;99.90
6407;DHT22;3236;51.022;6.818;2023-07-31T10:10:27;19.30;99.90
6407;DHT22;3236;51.022;6.818;2023-07-31T10:17:52;19.40;99.90
6407;DHT22;3236;51.022;6.818;2023-07-31T10:30:13;18.60;99.90
6407;DHT22;3236;51.022;6.818;2023-07-31T10:32:47;18.60;99.90
6407;DHT22;3236;51.022;6.818;2023-07-31T10:35:17;18.50;99.90
6407;DHT22;3236;51.022;6.818;2023-07-31T10:40:15;18.70;99.90
6407;DHT22;3236;51.022;6.818;2023-07-31T10:42:46;18.60;99.90
6407;DHT22;3236;51.022;6.818;2023-07-31T10:47:43;19.00;99.90
6407;DHT22;3236;51.022;6.818;2023-07-31T10:50:20;19.00;99.90
6407;DHT22;3236;51.022;6.818;2023-07-31T10:52:50;18.60;99.90
6407;DHT22;3236;51.022;6.818;2023-07-31T10:55:29;18.60;99.90
6407;DHT22;3236;51.022;6.818;2023-07-31T10:57:58;18.80;99.90
6407;DHT22;3236;51.022;6.818;2023-07-31T11:03:00;19.20;99.90
6407;DHT22;3236;51.022;6.818;2023-07-31T11:05:48;19.70;99.90
6407;DHT22;3236;51.022;6.818;2023-07-31T11:10:45;19.70;99.90
6407;DHT22;3236;51.022;6.818;2023-07-31T11:13:13;19.70;99.90
6407;DHT22;3236;51.022;6.818;2023-07-31T11:20:37;20.30;99.90
6407;DHT22;3236;51.022;6.818;2023-07-31T11:23:07;20.80;99.90
6407;DHT22;3236;51.022;6.818;2023-07-31T11:25:35;20.50;99.90
6407;DHT22;3236;51.022;6.818;2023-07-31T11:28:04;20.30;99.90
6407;DHT22;3236;51.022;6.818;2023-07-31T11:33:00;20.60;99.90
6407;DHT22;3236;51.022;6.818;2023-07-31T11:35:29;18.90;99.90
6407;DHT22;3236;51.022;6.818;2023-07-31T11:37:56;21.00;99.90
6407;DHT22;3236;51.022;6.818;2023-07-31T11:40:24;21.10;99.90
6407;DHT22;3236;51.022;6.818;2023-07-31T11:42:55;21.00;99.90
6407;DHT22;3236;51.022;6.818;2023-07-31T11:45:25;20.70;99.90
6407;DHT22;3236;51.022;6.818;2023-07-31T11:47:54;21.10;99.90
6407;DHT22;3236;51.022;6.818;2023-07-31T11:50:22;21.20;99.90
6407;DHT22;3236;51.022;6.818;2023-07-31T11:52:54;21.20;99.90
6407;DHT22;3236;51.022;6.818;2023-07-31T11:55:24;20.90;99.90
6407;DHT22;3236;51.022;6.818;2023-07-31T11:57:52;20.40;99.90
6407;DHT22;3236;51.022;6.818;2023-07-31T12:02:47;20.50;99.90
6407;DHT22;3236;51.022;6.818;2023-07-31T12:07:50;20.00;99.90
6407;DHT22;3236;51.022;6.818;2023-07-31T12:10:26;20.10;99.90
6407;DHT22;3236;51.022;6.818;2023-07-31T12:13:00;20.10;99.90
6407;DHT22;3236;51.022;6.818;2023-07-31T12:20:27;20.00;99.90
6407;DHT22;3236;51.022;6.818;2023-07-31T12:25:30;19.90;99.90
6407;DHT22;3236;51.022;6.818;2023-07-31T12:27:58;19.90;99.90
6407;DHT22;3236;51.022;6.818;2023-07-31T12:30:32;20.00;99.90
6407;DHT22;3236;51.022;6.818;2023-07-31T12:33:05;20.30;99.90
6407;DHT22;3236;51.022;6.818;2023-07-31T12:35:37;20.60;99.90
6407;DHT22;3236;51.022;6.818;2023-07-31T12:38:04;20.80;99.90
6407;DHT22;3236;51.022;6.818;2023-07-31T12:40:32;20.40;99.90
6407;DHT22;3236;51.022;6.818;2023-07-31T12:43:01;21.20;99.90
6407;DHT22;3236;51.022;6.818;2023-07-31T12:45:30;20.60;99.90
6407;DHT22;3236;51.022;6.818;2023-07-31T12:47:57;20.50;99.90
6407;DHT22;3236;51.022;6.818;2023-07-31T12:50:24;20.00;99.90
6407;DHT22;3236;51.022;6.818;2023-07-31T12:52:53;20.20;99.90
6407;DHT22;3236;51.022;6.818;2023-07-31T12:57:50;20.70;99.90
6407;DHT22;3236;51.022;6.818;2023-07-31T13:02:44;21.30;99.90
6407;DHT22;3236;51.022;6.818;2023-07-31T13:05:11;21.30;99.90
6407;DHT22;3236;51.022;6.818;2023-07-31T13:07:39;21.00;99.90
6407;DHT22;3236;51.022;6.818;2023-07-31T13:10:07;21.40;99.90
6407;DHT22;3236;51.022;6.818;2023-07-31T13:12:35;20.50;99.90
6407;DHT22;3236;51.022;6.818;2023-07-31T13:15:04;20.90;99.90
6407;DHT22;3236;51.022;6.818;2023-07-31T13:17:31;20.50;99.90
6407;DHT22;3236;51.022;6.818;2023-07-31T13:27:22;21.00;99.90
6407;DHT22;3236;51.022;6.818;2023-07-31T13:29:50;21.20;99.90
6407;DHT22;3236;51.022;6.818;2023-07-31T13:32:20;21.40;99.90
6407;DHT22;3236;51.022;6.818;2023-07-31T13:34:48;21.10;99.90
6407;DHT22;3236;51.022;6.818;2023-07-31T13:37:18;21.50;99.90
6407;DHT22;3236;51.022;6.818;2023-07-31T13:39:45;21.20;99.90
6407;DHT22;3236;51.022;6.818;2023-07-31T13:42:12;21.50;99.90
6407;DHT22;3236;51.022;6.818;2023-07-31T13:44:40;21.50;99.90
6407;DHT22;3236;51.022;6.818;2023-07-31T13:47:07;21.90;99.90
6407;DHT22;3236;51.022;6.818;2023-07-31T13:49:36;22.30;99.30
6407;DHT22;3236;51.022;6.818;2023-07-31T13:52:04;22.70;93.10
6407;DHT22;3236;51.022;6.818;2023-07-31T13:54:31;23.00;34.20
6407;DHT22;3236;51.022;6.818;2023-07-31T13:56:59;23.60;99.90
6407;DHT22;3236;51.022;6.818;2023-07-31T13:59:27;23.70;99.90
6407;DHT22;3236;51.022;6.818;2023-07-31T14:04:21;23.20;99.90
6407;DHT22;3236;51.022;6.818;2023-07-31T14:06:53;23.80;99.90
6407;DHT22;3236;51.022;6.818;2023-07-31T14:09:23;23.20;99.90
6407;DHT22;3236;51.022;6.818;2023-07-31T14:11:50;22.70;99.90
6407;DHT22;3236;51.022;6.818;2023-07-31T14:14:18;22.10;99.90
6407;DHT22;3236;51.022;6.818;2023-07-31T14:16:45;22.20;99.90
6407;DHT22;3236;51.022;6.818;2023-07-31T14:21:40;21.80;99.90
6407;DHT22;3236;51.022;6.818;2023-07-31T14:24:08;21.20;99.90
6407;DHT22;3236;51.022;6.818;2023-07-31T14:26:35;21.80;99.90
6407;DHT22;3236;51.022;6.818;2023-07-31T14:31:29;21.80;99.90
6407;DHT22;3236;51.022;6.818;2023-07-31T14:33:57;21.40;99.90
6407;DHT22;3236;51.022;6.818;2023-07-31T14:38:51;21.20;99.90
6407;DHT22;3236;51.022;6.818;2023-07-31T14:41:19;21.70;99.90
6407;DHT22;3236;51.022;6.818;2023-07-31T14:43:46;21.70;99.90
6407;DHT22;3236;51.022;6.818;2023-07-31T14:46:14;21.60;99.90
6407;DHT22;3236;51.022;6.818;2023-07-31T14:51:08;21.90;99.90
6407;DHT22;3236;51.022;6.818;2023-07-31T14:53:37;21.10;99.90
6407;DHT22;3236;51.022;6.818;2023-07-31T14:56:04;21.70;99.90
6407;DHT22;3236;51.022;6.818;2023-07-31T14:58:33;21.50;99.90
6407;DHT22;3236;51.022;6.818;2023-07-31T15:01:00;22.00;99.90
6407;DHT22;3236;51.022;6.818;2023-07-31T15:08:21;21.10;99.90
6407;DHT22;3236;51.022;6.818;2023-07-31T15:10:49;21.10;99.90
6407;DHT22;3236;51.022;6.818;2023-07-31T15:15:49;21.70;99.90
6407;DHT22;3236;51.022;6.818;2023-07-31T15:18:16;21.10;99.90
6407;DHT22;3236;51.022;6.818;2023-07-31T15:20:44;21.20;99.90
6407;DHT22;3236;51.022;6.818;2023-07-31T15:23:11;21.20;99.90
6407;DHT22;3236;51.022;6.818;2023-07-31T15:30:35;20.70;99.90
6407;DHT22;3236;51.022;6.818;2023-07-31T15:33:04;21.10;99.90
6407;DHT22;3236;51.022;6.818;2023-07-31T15:37:59;20.80;99.90
6407;DHT22;3236;51.022;6.818;2023-07-31T15:40:26;20.70;99.90
6407;DHT22;3236;51.022;6.818;2023-07-31T15:42:53;21.20;99.90
6407;DHT22;3236;51.022;6.818;2023-07-31T15:47:48;20.70;99.90
6407;DHT22;3236;51.022;6.818;2023-07-31T15:55:11;20.40;99.90
6407;DHT22;3236;51.022;6.818;2023-07-31T16:00:07;20.20;99.90
6407;DHT22;3236;51.022;6.818;2023-07-31T16:02:35;19.20;99.90
6407;DHT22;3236;51.022;6.818;2023-07-31T16:05:02;19.10;99.90
6407;DHT22;3236;51.022;6.818;2023-07-31T16:07:32;19.00;99.90
6407;DHT22;3236;51.022;6.818;2023-07-31T16:09:59;18.60;99.90
6407;DHT22;3236;51.022;6.818;2023-07-31T16:12:26;19.10;99.90
6407;DHT22;3236;51.022;6.818;2023-07-31T16:14:53;18.60;99.90
6407;DHT22;3236;51.022;6.818;2023-07-31T16:17:20;19.00;99.90
6407;DHT22;3236;51.022;6.818;2023-07-31T16:22:15;18.90;99.90
6407;DHT22;3236;51.022;6.818;2023-07-31T16:24:43;18.30;99.90
6407;DHT22;3236;51.022;6.818;2023-07-31T16:29:38;19.00;99.90
6407;DHT22;3236;51.022;6.818;2023-07-31T16:32:06;18.60;99.90
6407;DHT22;3236;51.022;6.818;2023-07-31T16:34:33;18.50;99.90
6407;DHT22;3236;51.022;6.818;2023-07-31T16:37:00;18.20;99.90
6407;DHT22;3236;51.022;6.818;2023-07-31T16:39:28;18.40;99.90
6407;DHT22;3236;51.022;6.818;2023-07-31T16:42:02;18.30;99.90
6407;DHT22;3236;51.022;6.818;2023-07-31T16:44:29;18.80;99.90
6407;DHT22;3236;51.022;6.818;2023-07-31T16:46:56;18.70;99.90
6407;DHT22;3236;51.022;6.818;2023-07-31T16:49:23;18.10;99.90
6407;DHT22;3236;51.022;6.818;2023-07-31T16:51:51;17.90;99.90
6407;DHT22;3236;51.022;6.818;2023-07-31T16:54:18;18.00;99.90
6407;DHT22;3236;51.022;6.818;2023-07-31T16:56:45;18.00;99.90
6407;DHT22;3236;51.022;6.818;2023-07-31T16:59:15;18.20;99.90
6407;DHT22;3236;51.022;6.818;2023-07-31T17:01:43;18.20;99.90
6407;DHT22;3236;51.022;6.818;2023-07-31T17:04:10;18.40;99.90
6407;DHT22;3236;51.022;6.818;2023-07-31T17:09:05;18.20;99.90
6407;DHT22;3236;51.022;6.818;2023-07-31T17:11:33;18.10;99.90
6407;DHT22;3236;51.022;6.818;2023-07-31T17:24:03;18.30;99.90
6407;DHT22;3236;51.022;6.818;2023-07-31T17:28:58;17.80;99.90
6407;DHT22;3236;51.022;6.818;2023-07-31T17:31:25;17.90;99.90
6407;DHT22;3236;51.022;6.818;2023-07-31T17:33:54;18.20;99.90
6407;DHT22;3236;51.022;6.818;2023-07-31T17:38:48;18.50;99.90
6407;DHT22;3236;51.022;6.818;2023-07-31T17:41:15;18.00;99.90
6407;DHT22;3236;51.022;6.818;2023-07-31T17:46:11;17.90;99.90
6407;DHT22;3236;51.022;6.818;2023-07-31T17:51:08;18.10;99.90
6407;DHT22;3236;51.022;6.818;2023-07-31T17:53:35;18.10;99.90
6407;DHT22;3236;51.022;6.818;2023-07-31T17:56:03;17.70;99.90
6407;DHT22;3236;51.022;6.818;2023-07-31T17:58:31;18.10;99.90
6407;DHT22;3236;51.022;6.818;2023-07-31T18:00:58;17.60;99.90
6407;DHT22;3236;51.022;6.818;2023-07-31T18:08:21;17.60;99.90
6407;DHT22;3236;51.022;6.818;2023-07-31T18:10:48;17.80;99.90
6407;DHT22;3236;51.022;6.818;2023-07-31T18:13:15;17.70;99.90
6407;DHT22;3236;51.022;6.818;2023-07-31T18:15:45;18.00;99.90
6407;DHT22;3236;51.022;6.818;2023-07-31T18:18:12;18.10;99.90
6407;DHT22;3236;51.022;6.818;2023-07-31T18:20:39;17.70;99.90
6407;DHT22;3236;51.022;6.818;2023-07-31T18:23:06;18.00;99.90
6407;DHT22;3236;51.022;6.818;2023-07-31T18:25:35;17.90;99.90
6407;DHT22;3236;51.022;6.818;2023-07-31T18:28:02;18.30;99.90
6407;DHT22;3236;51.022;6.818;2023-07-31T18:32:57;18.30;99.90
6407;DHT22;3236;51.022;6.818;2023-07-31T18:35:24;18.10;99.90
6407;DHT22;3236;51.022;6.818;2023-07-31T18:40:18;18.30;99.90
6407;DHT22;3236;51.022;6.818;2023-07-31T18:42:47;17.70;99.90
6407;DHT22;3236;51.022;6.818;2023-07-31T18:45:14;18.10;99.90
6407;DHT22;3236;51.022;6.818;2023-07-31T18:47:41;17.90;99.90
6407;DHT22;3236;51.022;6.818;2023-07-31T18:50:08;17.60;99.90
6407;DHT22;3236;51.022;6.818;2023-07-31T18:52:39;18.10;99.90
6407;DHT22;3236;51.022;6.818;2023-07-31T18:55:06;17.40;99.90
6407;DHT22;3236;51.022;6.818;2023-07-31T18:57:33;18.00;99.90
6407;DHT22;3236;51.022;6.818;2023-07-31T19:00:02;17.40;99.90
6407;DHT22;3236;51.022;6.818;2023-07-31T19:02:30;17.20;99.90
6407;DHT22;3236;51.022;6.818;2023-07-31T19:04:57;18.20;99.90
6407;DHT22;3236;51.022;6.818;2023-07-31T19:07:24;18.10;99.90
6407;DHT22;3236;51.022;6.818;2023-07-31T19:09:54;18.10;99.90
6407;DHT22;3236;51.022;6.818;2023-07-31T19:17:17;17.60;99.90
6407;DHT22;3236;51.022;6.818;2023-07-31T19:19:44;17.40;99.90
6407;DHT22;3236;51.022;6.818;2023-07-31T19:24:39;17.90;99.90
6407;DHT22;3236;51.022;6.818;2023-07-31T19:27:06;18.10;99.90
6407;DHT22;3236;51.022;6.818;2023-07-31T19:29:33;18.10;99.90
6407;DHT22;3236;51.022;6.818;2023-07-31T19:32:00;17.40;99.90
6407;DHT22;3236;51.022;6.818;2023-07-31T19:34:28;17.30;99.90
6407;DHT22;3236;51.022;6.818;2023-07-31T19:36:56;17.20;99.90
6407;DHT22;3236;51.022;6.818;2023-07-31T19:39:28;17.80;99.90
6407;DHT22;3236;51.022;6.818;2023-07-31T19:41:55;18.00;99.90
6407;DHT22;3236;51.022;6.818;2023-07-31T19:44:23;18.00;99.90
6407;DHT22;3236;51.022;6.818;2023-07-31T19:46:50;17.30;99.90
6407;DHT22;3236;51.022;6.818;2023-07-31T19:49:17;17.40;99.90
6407;DHT22;3236;51.022;6.818;2023-07-31T19:51:45;17.60;99.90
6407;DHT22;3236;51.022;6.818;2023-07-31T19:54:12;17.80;99.90
6407;DHT22;3236;51.022;6.818;2023-07-31T19:56:40;17.70;99.90
6407;DHT22;3236;51.022;6.818;2023-07-31T19:59:07;17.90;99.90
6407;DHT22;3236;51.022;6.818;2023-07-31T20:01:35;17.70;99.90
6407;DHT22;3236;51.022;6.818;2023-07-31T20:04:09;17.60;99.90
6407;DHT22;3236;51.022;6.818;2023-07-31T20:06:36;17.30;99.90
6407;DHT22;3236;51.022;6.818;2023-07-31T20:09:05;17.50;99.90
6407;DHT22;3236;51.022;6.818;2023-07-31T20:11:34;17.90;99.90
6407;DHT22;3236;51.022;6.818;2023-07-31T20:14:04;17.40;99.90
6407;DHT22;3236;51.022;6.818;2023-07-31T20:16:32;17.80;99.90
6407;DHT22;3236;51.022;6.818;2023-07-31T20:19:01;17.30;99.90
6407;DHT22;3236;51.022;6.818;2023-07-31T20:21:28;17.30;99.90
6407;DHT22;3236;51.022;6.818;2023-07-31T20:23:55;17.60;99.90
6407;DHT22;3236;51.022;6.818;2023-07-31T20:26:23;17.80;99.90
6407;DHT22;3236;51.022;6.818;2023-07-31T20:31:21;18.10;99.90
6407;DHT22;3236;51.022;6.818;2023-07-31T20:33:48;17.40;99.90
6407;DHT22;3236;51.022;6.818;2023-07-31T20:36:15;17.50;99.90
6407;DHT22;3236;51.022;6.818;2023-07-31T20:38:42;17.60;99.90
6407;DHT22;3236;51.022;6.818;2023-07-31T20:41:10;17.60;99.90
6407;DHT22;3236;51.022;6.818;2023-07-31T20:43:39;17.30;99.90
6407;DHT22;3236;51.022;6.818;2023-07-31T20:46:06;17.50;99.90
6407;DHT22;3236;51.022;6.818;2023-07-31T20:48:33;17.90;99.90
6407;DHT22;3236;51.022;6.818;2023-07-31T20:53:28;17.30;99.90
6407;DHT22;3236;51.022;6.818;2023-07-31T20:55:56;17.90;99.90
6407;DHT22;3236;51.022;6.818;2023-07-31T20:58:23;17.60;99.90
6407;DHT22;3236;51.022;6.818;2023-07-31T21:00:52;17.40;99.90